sensor_id;sensor_type;location;lat;lon;timestamp;pressure;altitude;pressure_sealevel;temperature;humidity
39267;BME280;24967;51.154;13.812;2023-09-08T00:00:00;100083.09;;;17.61;74.99
39267;BME280;24967;51.154;13.812;2023-09-08T00:02:28;100083.28;;;17.59;74.64
39267;BME280;24967;51.154;13.812;2023-09-08T00:04:55;100082.44;;;17.59;74.82
39267;BME280;24967;51.154;13.812;2023-09-08T00:07:21;100082.44;;;17.59;74.56
39267;BME280;24967;51.154;13.812;2023-09-08T00:09:48;100083.47;;;17.58;74.25
39267;BME280;24967;51.154;13.812;2023-09-08T00:12:15;100088.16;;;17.41;74.44
39267;BME280;24967;51.154;13.812;2023-09-08T00:17:18;100093.06;;;17.14;75.55
39267;BME280;24967;51.154;13.812;2023-09-08T00:19:44;100095.28;;;17.11;75.50
39267;BME280;24967;51.154;13.812;2023-09-08T00:22:11;100092.13;;;17.07;75.28
39267;BME280;24967;51.154;13.812;2023-09-08T00:24:37;100089.78;;;17.04;74.81
39267;BME280;24967;51.154;13.812;2023-09-08T00:27:04;100088.47;;;17.00;74.68
39267;BME280;24967;51.154;13.812;2023-09-08T00:29:31;100087.16;;;16.96;74.69
39267;BME280;24967;51.154;13.812;2023-09-08T00:31:57;100082.34;;;16.91;75.07
39267;BME280;24967;51.154;13.812;2023-09-08T00:34:25;100082.69;;;16.88;75.48
39267;BME280;24967;51.154;13.812;2023-09-08T00:36:51;100078.88;;;16.83;75.84
39267;BME280;24967;51.154;13.812;2023-09-08T00:39:18;100082.91;;;16.79;76.07
39267;BME280;24967;51.154;13.812;2023-09-08T00:41:44;100077.91;;;16.76;76.48
39267;BME280;24967;51.154;13.812;2023-09-08T00:44:11;100085.75;;;16.85;76.35
39267;BME280;24967;51.154;13.812;2023-09-08T00:46:37;100079.00;;;16.89;76.09
39267;BME280;24967;51.154;13.812;2023-09-08T00:49:05;100082.03;;;16.86;76.58
39267;BME280;24967;51.154;13.812;2023-09-08T00:51:33;100088.72;;;16.90;76.52
39267;BME280;24967;51.154;13.812;2023-09-08T00:54:00;100090.09;;;16.86;77.34
39267;BME280;24967;51.154;13.812;2023-09-08T00:56:27;100088.06;;;16.88;77.35
39267;BME280;24967;51.154;13.812;2023-09-08T00:58:55;100085.50;;;16.95;76.84
39267;BME280;24967;51.154;13.812;2023-09-08T01:01:22;100094.69;;;17.01;76.44
39267;BME280;24967;51.154;13.812;2023-09-08T01:03:48;100088.66;;;16.99;76.27
39267;BME280;24967;51.154;13.812;2023-09-08T01:06:15;100082.22;;;17.08;75.52
39267;BME280;24967;51.154;13.812;2023-09-08T01:08:43;100078.69;;;17.07;75.21
39267;BME280;24967;51.154;13.812;2023-09-08T01:11:10;100081.91;;;17.03;76.01
39267;BME280;24967;51.154;13.812;2023-09-08T01:13:36;100072.19;;;17.02;76.14
39267;BME280;24967;51.154;13.812;2023-09-08T01:16:03;100080.06;;;17.03;76.15
39267;BME280;24967;51.154;13.812;2023-09-08T01:18:30;100079.06;;;17.04;75.88
39267;BME280;24967;51.154;13.812;2023-09-08T01:21:10;100080.06;;;17.03;75.76
39267;BME280;24967;51.154;13.812;2023-09-08T01:23:54;100082.63;;;16.97;75.32
39267;BME280;24967;51.154;13.812;2023-09-08T01:26:27;100074.56;;;16.97;75.13
39267;BME280;24967;51.154;13.812;2023-09-08T01:28:57;100075.28;;;16.90;75.48
39267;BME280;24967;51.154;13.812;2023-09-08T01:31:25;100080.00;;;16.88;75.79
39267;BME280;24967;51.154;13.812;2023-09-08T01:33:52;100075.94;;;16.92;75.55
39267;BME280;24967;51.154;13.812;2023-09-08T01:36:18;100073.63;;;16.89;75.85
39267;BME280;24967;51.154;13.812;2023-09-08T01:38:45;100074.50;;;16.82;75.58
39267;BME280;24967;51.154;13.812;2023-09-08T01:41:11;100076.91;;;16.77;75.28
39267;BME280;24967;51.154;13.812;2023-09-08T01:43:39;100079.41;;;16.70;75.06
39267;BME280;24967;51.154;13.812;2023-09-08T01:46:06;100072.56;;;16.67;74.99
39267;BME280;24967;51.154;13.812;2023-09-08T01:48:32;100060.97;;;16.67;74.70
39267;BME280;24967;51.154;13.812;2023-09-08T01:50:59;100063.53;;;16.60;74.77
39267;BME280;24967;51.154;13.812;2023-09-08T01:53:25;100070.94;;;16.58;74.73
39267;BME280;24967;51.154;13.812;2023-09-08T01:56:00;100062.22;;;16.56;74.75
39267;BME280;24967;51.154;13.812;2023-09-08T01:58:27;100059.94;;;16.45;75.41
39267;BME280;24967;51.154;13.812;2023-09-08T02:00:57;100058.78;;;16.39;75.77
39267;BME280;24967;51.154;13.812;2023-09-08T02:03:28;100052.69;;;16.45;75.80
39267;BME280;24967;51.154;13.812;2023-09-08T02:05:54;100051.38;;;16.49;77.89
39267;BME280;24967;51.154;13.812;2023-09-08T02:08:21;100050.03;;;16.45;81.52
39267;BME280;24967;51.154;13.812;2023-09-08T02:10:47;100052.44;;;16.63;81.11
39267;BME280;24967;51.154;13.812;2023-09-08T02:13:14;100055.06;;;16.71;80.56
39267;BME280;24967;51.154;13.812;2023-09-08T02:15:40;100051.34;;;16.81;79.51
39267;BME280;24967;51.154;13.812;2023-09-08T02:18:08;100061.75;;;16.84;78.18
39267;BME280;24967;51.154;13.812;2023-09-08T02:20:35;100061.03;;;16.90;77.17
39267;BME280;24967;51.154;13.812;2023-09-08T02:23:04;100053.31;;;16.87;77.27
39267;BME280;24967;51.154;13.812;2023-09-08T02:25:31;100055.19;;;16.86;78.09
39267;BME280;24967;51.154;13.812;2023-09-08T02:27:57;100053.28;;;16.95;77.45
39267;BME280;24967;51.154;13.812;2023-09-08T02:30:24;100059.13;;;16.99;77.60
39267;BME280;24967;51.154;13.812;2023-09-08T02:32:50;100057.63;;;16.96;76.91
39267;BME280;24967;51.154;13.812;2023-09-08T02:35:18;100058.66;;;16.95;75.75
39267;BME280;24967;51.154;13.812;2023-09-08T02:37:45;100065.09;;;16.86;75.17
39267;BME280;24967;51.154;13.812;2023-09-08T02:40:11;100050.53;;;16.80;75.05
39267;BME280;24967;51.154;13.812;2023-09-08T02:42:38;100052.88;;;16.75;74.85
39267;BME280;24967;51.154;13.812;2023-09-08T02:45:05;100055.59;;;16.67;74.58
39267;BME280;24967;51.154;13.812;2023-09-08T02:47:32;100059.84;;;16.61;74.74
39267;BME280;24967;51.154;13.812;2023-09-08T02:49:58;100054.88;;;16.50;74.81
39267;BME280;24967;51.154;13.812;2023-09-08T02:52:26;100050.03;;;16.45;75.15
39267;BME280;24967;51.154;13.812;2023-09-08T02:54:53;100052.91;;;16.44;75.24
39267;BME280;24967;51.154;13.812;2023-09-08T02:57:19;100040.66;;;16.41;75.19
39267;BME280;24967;51.154;13.812;2023-09-08T02:59:48;100039.16;;;16.39;75.68
39267;BME280;24967;51.154;13.812;2023-09-08T03:02:16;100037.66;;;16.36;75.79
39267;BME280;24967;51.154;13.812;2023-09-08T03:04:42;100035.34;;;16.33;76.19
39267;BME280;24967;51.154;13.812;2023-09-08T03:07:09;100034.84;;;16.30;77.06
39267;BME280;24967;51.154;13.812;2023-09-08T03:09:36;100030.50;;;16.29;77.05
39267;BME280;24967;51.154;13.812;2023-09-08T03:12:04;100027.81;;;16.29;77.08
39267;BME280;24967;51.154;13.812;2023-09-08T03:14:30;100026.31;;;16.26;77.28
39267;BME280;24967;51.154;13.812;2023-09-08T03:16:57;100027.50;;;16.23;77.51
39267;BME280;24967;51.154;13.812;2023-09-08T03:19:23;100031.38;;;16.21;78.13
39267;BME280;24967;51.154;13.812;2023-09-08T03:21:50;100028.88;;;16.19;78.29
39267;BME280;24967;51.154;13.812;2023-09-08T03:24:16;100025.53;;;16.17;78.65
39267;BME280;24967;51.154;13.812;2023-09-08T03:26:44;100023.19;;;16.14;78.91
39267;BME280;24967;51.154;13.812;2023-09-08T03:29:10;100021.69;;;16.12;79.18
39267;BME280;24967;51.154;13.812;2023-09-08T03:31:37;100022.03;;;16.09;78.98
39267;BME280;24967;51.154;13.812;2023-09-08T03:34:03;100017.69;;;16.08;78.43
39267;BME280;24967;51.154;13.812;2023-09-08T03:36:30;100025.25;;;16.04;78.35
39267;BME280;24967;51.154;13.812;2023-09-08T03:39:00;100028.09;;;16.02;78.49
39267;BME280;24967;51.154;13.812;2023-09-08T03:41:27;100023.28;;;15.98;78.73
39267;BME280;24967;51.154;13.812;2023-09-08T03:43:55;100022.59;;;15.96;79.29
39267;BME280;24967;51.154;13.812;2023-09-08T03:46:21;100023.78;;;15.93;79.09
39267;BME280;24967;51.154;13.812;2023-09-08T03:48:49;100027.00;;;15.89;79.49
39267;BME280;24967;51.154;13.812;2023-09-08T03:51:16;100026.31;;;15.87;79.51
39267;BME280;24967;51.154;13.812;2023-09-08T03:53:42;100025.66;;;15.85;79.33
39267;BME280;24967;51.154;13.812;2023-09-08T03:56:09;100031.19;;;15.83;79.41
39267;BME280;24967;51.154;13.812;2023-09-08T03:58:35;100031.72;;;15.78;79.28
39267;BME280;24967;51.154;13.812;2023-09-08T04:01:03;100029.38;;;15.75;79.27
39267;BME280;24967;51.154;13.812;2023-09-08T04:03:29;100022.50;;;15.73;79.20
39267;BME280;24967;51.154;13.812;2023-09-08T04:05:56;100024.69;;;15.69;79.12
39267;BME280;24967;51.154;13.812;2023-09-08T04:08:22;100032.06;;;15.67;78.93
39267;BME280;24967;51.154;13.812;2023-09-08T04:10:49;100029.88;;;15.63;78.90
39267;BME280;24967;51.154;13.812;2023-09-08T04:13:16;100023.69;;;15.54;79.31
39267;BME280;24967;51.154;13.812;2023-09-08T04:15:42;100025.88;;;15.50;79.18
39267;BME280;24967;51.154;13.812;2023-09-08T04:18:10;100031.59;;;15.47;79.16
39267;BME280;24967;51.154;13.812;2023-09-08T04:20:37;100024.72;;;15.45;79.04
39267;BME280;24967;51.154;13.812;2023-09-08T04:23:03;100034.94;;;15.41;79.29
39267;BME280;24967;51.154;13.812;2023-09-08T04:25:30;100035.09;;;15.40;79.46
39267;BME280;24967;51.154;13.812;2023-09-08T04:27:56;100028.44;;;15.35;79.75
39267;BME280;24967;51.154;13.812;2023-09-08T04:30:23;100041.13;;;15.33;79.92
39267;BME280;24967;51.154;13.812;2023-09-08T04:32:49;100036.94;;;15.31;80.12
39267;BME280;24967;51.154;13.812;2023-09-08T04:35:17;100043.50;;;15.28;80.06
39267;BME280;24967;51.154;13.812;2023-09-08T04:37:44;100040.97;;;15.27;80.25
39267;BME280;24967;51.154;13.812;2023-09-08T04:40:10;100042.97;;;15.25;80.53
39267;BME280;24967;51.154;13.812;2023-09-08T04:42:37;100046.00;;;15.22;80.74
39267;BME280;24967;51.154;13.812;2023-09-08T04:45:04;100038.31;;;15.19;81.20
39267;BME280;24967;51.154;13.812;2023-09-08T04:47:31;100052.22;;;15.14;82.18
39267;BME280;24967;51.154;13.812;2023-09-08T04:49:57;100049.19;;;15.09;82.69
39267;BME280;24967;51.154;13.812;2023-09-08T04:52:25;100038.97;;;15.12;82.60
39267;BME280;24967;51.154;13.812;2023-09-08T04:54:52;100043.00;;;15.17;82.13
39267;BME280;24967;51.154;13.812;2023-09-08T04:57:18;100044.34;;;15.21;81.78
39267;BME280;24967;51.154;13.812;2023-09-08T04:59:46;100042.97;;;15.25;81.65
39267;BME280;24967;51.154;13.812;2023-09-08T05:02:12;100038.31;;;15.27;81.79
39267;BME280;24967;51.154;13.812;2023-09-08T05:04:39;100039.81;;;15.29;81.58
39267;BME280;24967;51.154;13.812;2023-09-08T05:07:05;100039.47;;;15.32;81.82
39267;BME280;24967;51.154;13.812;2023-09-08T05:09:33;100043.47;;;15.37;82.43
39267;BME280;24967;51.154;13.812;2023-09-08T05:12:00;100041.66;;;15.37;82.36
39267;BME280;24967;51.154;13.812;2023-09-08T05:14:26;100029.75;;;15.40;82.81
39267;BME280;24967;51.154;13.812;2023-09-08T05:16:53;100036.63;;;15.42;83.35
39267;BME280;24967;51.154;13.812;2023-09-08T05:19:21;100041.63;;;15.45;83.55
39267;BME280;24967;51.154;13.812;2023-09-08T05:21:50;100041.28;;;15.48;84.01
39267;BME280;24967;51.154;13.812;2023-09-08T05:24:16;100047.19;;;15.44;84.64
39267;BME280;24967;51.154;13.812;2023-09-08T05:26:44;100054.19;;;15.45;85.16
39267;BME280;24967;51.154;13.812;2023-09-08T05:29:11;100042.78;;;15.51;84.89
39267;BME280;24967;51.154;13.812;2023-09-08T05:31:37;100048.78;;;15.61;84.87
39267;BME280;24967;51.154;13.812;2023-09-08T05:34:04;100045.16;;;15.70;84.63
39267;BME280;24967;51.154;13.812;2023-09-08T05:36:30;100049.47;;;15.79;84.62
39267;BME280;24967;51.154;13.812;2023-09-08T05:38:58;100049.28;;;15.89;84.42
39267;BME280;24967;51.154;13.812;2023-09-08T05:41:24;100051.75;;;15.99;84.42
39267;BME280;24967;51.154;13.812;2023-09-08T05:43:53;100047.88;;;16.10;84.52
39267;BME280;24967;51.154;13.812;2023-09-08T05:46:19;100050.69;;;16.16;84.83
39267;BME280;24967;51.154;13.812;2023-09-08T05:48:46;100048.63;;;16.26;85.14
39267;BME280;24967;51.154;13.812;2023-09-08T09:08:12;99988.53;;;38.00;26.00
39267;BME280;24967;51.154;13.812;2023-09-08T09:10:39;99989.59;;;38.39;24.61
39267;BME280;24967;51.154;13.812;2023-09-08T09:13:06;99979.75;;;38.16;25.05
39267;BME280;24967;51.154;13.812;2023-09-08T09:15:32;99982.41;;;38.56;24.86
39267;BME280;24967;51.154;13.812;2023-09-08T09:18:03;99981.50;;;37.94;24.06
39267;BME280;24967;51.154;13.812;2023-09-08T09:20:30;99982.22;;;38.26;25.20
39267;BME280;24967;51.154;13.812;2023-09-08T09:22:57;99977.13;;;38.37;24.67
39267;BME280;24967;51.154;13.812;2023-09-08T09:25:27;99990.19;;;38.27;24.87
39267;BME280;24967;51.154;13.812;2023-09-08T09:27:54;99973.06;;;38.17;24.80
39267;BME280;24967;51.154;13.812;2023-09-08T09:30:22;99971.16;;;37.77;25.17
39267;BME280;24967;51.154;13.812;2023-09-08T09:32:50;99969.38;;;37.90;26.20
39267;BME280;24967;51.154;13.812;2023-09-08T09:35:39;99963.47;;;37.74;25.22
39267;BME280;24967;51.154;13.812;2023-09-08T09:38:06;99965.81;;;36.96;25.37
39267;BME280;24967;51.154;13.812;2023-09-08T09:40:34;99971.59;;;36.41;26.59
39267;BME280;24967;51.154;13.812;2023-09-08T09:43:01;99970.31;;;35.97;27.42
39267;BME280;24967;51.154;13.812;2023-09-08T09:45:29;99967.97;;;35.76;28.04
39267;BME280;24967;51.154;13.812;2023-09-08T09:47:55;99972.97;;;35.47;29.00
39267;BME280;24967;51.154;13.812;2023-09-08T09:50:28;99966.31;;;35.01;28.29
39267;BME280;24967;51.154;13.812;2023-09-08T09:52:57;99963.88;;;34.43;28.90
39267;BME280;24967;51.154;13.812;2023-09-08T09:55:23;99959.56;;;34.18;30.46
39267;BME280;24967;51.154;13.812;2023-09-08T09:57:55;99962.09;;;33.71;30.42
39267;BME280;24967;51.154;13.812;2023-09-08T10:00:22;99967.81;;;33.51;32.16
39267;BME280;24967;51.154;13.812;2023-09-08T10:02:50;99961.41;;;33.56;29.89
39267;BME280;24967;51.154;13.812;2023-09-08T10:05:17;99964.00;;;33.47;31.65
39267;BME280;24967;51.154;13.812;2023-09-08T10:07:45;99964.69;;;33.04;30.70
39267;BME280;24967;51.154;13.812;2023-09-08T10:10:12;99959.94;;;33.10;30.55
39267;BME280;24967;51.154;13.812;2023-09-08T10:12:41;99974.47;;;32.47;32.14
39267;BME280;24967;51.154;13.812;2023-09-08T10:15:11;99961.47;;;32.53;32.56
39267;BME280;24967;51.154;13.812;2023-09-08T10:17:38;99953.84;;;32.45;32.23
39267;BME280;24967;51.154;13.812;2023-09-08T10:20:09;99953.44;;;32.61;33.41
39267;BME280;24967;51.154;13.812;2023-09-08T10:22:38;99950.84;;;32.36;32.55
39267;BME280;24967;51.154;13.812;2023-09-08T10:25:08;99956.09;;;32.32;32.55
39267;BME280;24967;51.154;13.812;2023-09-08T10:27:34;99952.88;;;32.15;32.32
39267;BME280;24967;51.154;13.812;2023-09-08T10:30:02;99946.56;;;32.20;32.99
39267;BME280;24967;51.154;13.812;2023-09-08T10:32:33;99948.38;;;32.34;33.76
39267;BME280;24967;51.154;13.812;2023-09-08T10:35:02;99947.13;;;32.16;32.28
39267;BME280;24967;51.154;13.812;2023-09-08T10:37:29;99942.22;;;32.03;31.07
39267;BME280;24967;51.154;13.812;2023-09-08T10:40:21;99944.75;;;31.94;32.14
39267;BME280;24967;51.154;13.812;2023-09-08T10:42:48;99945.28;;;32.02;31.97
39267;BME280;24967;51.154;13.812;2023-09-08T10:45:16;99934.75;;;32.14;32.78
39267;BME280;24967;51.154;13.812;2023-09-08T10:47:56;99937.66;;;32.33;31.94
39267;BME280;24967;51.154;13.812;2023-09-08T10:50:27;99939.81;;;32.41;31.82
39267;BME280;24967;51.154;13.812;2023-09-08T10:53:07;99932.00;;;32.58;30.54
39267;BME280;24967;51.154;13.812;2023-09-08T10:55:39;99924.06;;;32.52;29.66
39267;BME280;24967;51.154;13.812;2023-09-08T10:58:09;99925.06;;;32.66;30.32
39267;BME280;24967;51.154;13.812;2023-09-08T11:00:46;99933.53;;;32.75;30.38
39267;BME280;24967;51.154;13.812;2023-09-08T11:03:13;99926.94;;;32.71;29.29
39267;BME280;24967;51.154;13.812;2023-09-08T11:05:41;99927.38;;;32.54;30.42
39267;BME280;24967;51.154;13.812;2023-09-08T11:08:09;99925.44;;;32.54;30.62
39267;BME280;24967;51.154;13.812;2023-09-08T11:10:37;99925.06;;;32.66;29.25
39267;BME280;24967;51.154;13.812;2023-09-08T11:13:06;99926.75;;;32.62;28.76
39267;BME280;24967;51.154;13.812;2023-09-08T11:15:32;99929.78;;;32.60;29.64
39267;BME280;24967;51.154;13.812;2023-09-08T11:18:04;99919.34;;;32.57;29.19
39267;BME280;24967;51.154;13.812;2023-09-08T11:20:31;99921.44;;;32.71;28.72
39267;BME280;24967;51.154;13.812;2023-09-08T11:22:58;99917.78;;;32.46;27.96
39267;BME280;24967;51.154;13.812;2023-09-08T11:25:24;99914.19;;;32.51;30.19
39267;BME280;24967;51.154;13.812;2023-09-08T11:27:52;99915.44;;;32.64;30.50
39267;BME280;24967;51.154;13.812;2023-09-08T11:30:19;99918.94;;;32.74;30.58
39267;BME280;24967;51.154;13.812;2023-09-08T11:32:45;99914.78;;;32.77;29.54
39267;BME280;24967;51.154;13.812;2023-09-08T11:35:12;99907.50;;;32.91;29.79
39267;BME280;24967;51.154;13.812;2023-09-08T11:37:41;99906.28;;;32.73;29.07
39267;BME280;24967;51.154;13.812;2023-09-08T11:40:09;99906.78;;;32.80;30.38
39267;BME280;24967;51.154;13.812;2023-09-08T11:42:38;99907.63;;;32.76;28.49
39267;BME280;24967;51.154;13.812;2023-09-08T11:45:11;99906.63;;;32.67;29.47
39267;BME280;24967;51.154;13.812;2023-09-08T11:47:40;99904.09;;;32.36;30.39
39267;BME280;24967;51.154;13.812;2023-09-08T11:50:08;99906.63;;;32.27;28.75
39267;BME280;24967;51.154;13.812;2023-09-08T11:52:37;99900.16;;;32.03;29.77
39267;BME280;24967;51.154;13.812;2023-09-08T11:55:04;99904.88;;;31.92;29.88
39267;BME280;24967;51.154;13.812;2023-09-08T11:57:31;99906.16;;;32.15;30.08
39267;BME280;24967;51.154;13.812;2023-09-08T12:00:01;99905.44;;;31.94;29.63
39267;BME280;24967;51.154;13.812;2023-09-08T12:02:35;99913.13;;;31.97;30.94
39267;BME280;24967;51.154;13.812;2023-09-08T12:05:03;99901.31;;;31.91;30.60
39267;BME280;24967;51.154;13.812;2023-09-08T12:07:29;99898.88;;;31.80;30.28
39267;BME280;24967;51.154;13.812;2023-09-08T12:09:57;99901.66;;;31.75;30.74
39267;BME280;24967;51.154;13.812;2023-09-08T12:12:24;99898.94;;;31.69;31.04
39267;BME280;24967;51.154;13.812;2023-09-08T12:14:51;99893.72;;;31.68;30.37
39267;BME280;24967;51.154;13.812;2023-09-08T12:17:20;99896.41;;;31.83;30.99
39267;BME280;24967;51.154;13.812;2023-09-08T12:19:51;99895.91;;;31.71;30.13
39267;BME280;24967;51.154;13.812;2023-09-08T12:22:18;99887.69;;;31.61;30.25
39267;BME280;24967;51.154;13.812;2023-09-08T12:24:56;99891.47;;;31.80;31.29
39267;BME280;24967;51.154;13.812;2023-09-08T12:27:24;99890.38;;;31.81;31.19
39267;BME280;24967;51.154;13.812;2023-09-08T12:29:55;99890.63;;;31.90;31.79
39267;BME280;24967;51.154;13.812;2023-09-08T12:32:21;99880.16;;;31.87;30.51
39267;BME280;24967;51.154;13.812;2023-09-08T12:34:48;99882.88;;;31.97;30.87
39267;BME280;24967;51.154;13.812;2023-09-08T12:37:19;99870.88;;;31.78;31.04
39267;BME280;24967;51.154;13.812;2023-09-08T12:39:46;99871.63;;;31.93;31.04
39267;BME280;24967;51.154;13.812;2023-09-08T12:42:12;99866.22;;;31.68;30.63
39267;BME280;24967;51.154;13.812;2023-09-08T12:44:39;99863.78;;;31.66;30.48
39267;BME280;24967;51.154;13.812;2023-09-08T12:47:06;99866.03;;;31.59;31.62
39267;BME280;24967;51.154;13.812;2023-09-08T12:49:32;99864.81;;;31.81;30.88
39267;BME280;24967;51.154;13.812;2023-09-08T12:51:59;99860.16;;;31.71;30.82
39267;BME280;24967;51.154;13.812;2023-09-08T12:54:27;99856.34;;;31.72;30.90
39267;BME280;24967;51.154;13.812;2023-09-08T12:56:53;99860.53;;;31.54;29.97
39267;BME280;24967;51.154;13.812;2023-09-08T12:59:20;99858.34;;;31.56;31.20
39267;BME280;24967;51.154;13.812;2023-09-08T13:01:46;99847.63;;;31.55;30.62
39267;BME280;24967;51.154;13.812;2023-09-08T13:04:13;99851.47;;;31.54;29.96
39267;BME280;24967;51.154;13.812;2023-09-08T13:06:39;99850.66;;;31.53;30.74
39267;BME280;24967;51.154;13.812;2023-09-08T13:09:06;99849.25;;;31.56;31.18
39267;BME280;24967;51.154;13.812;2023-09-08T13:11:35;99848.69;;;31.64;30.73
39267;BME280;24967;51.154;13.812;2023-09-08T13:14:01;99850.16;;;31.31;30.24
39267;BME280;24967;51.154;13.812;2023-09-08T13:16:28;99849.06;;;31.42;29.56
39267;BME280;24967;51.154;13.812;2023-09-08T13:18:54;99857.78;;;31.59;30.35
39267;BME280;24967;51.154;13.812;2023-09-08T13:21:21;99849.50;;;31.64;29.21
39267;BME280;24967;51.154;13.812;2023-09-08T13:23:47;99841.06;;;31.51;30.68
39267;BME280;24967;51.154;13.812;2023-09-08T13:26:14;99842.69;;;31.52;31.35
39267;BME280;24967;51.154;13.812;2023-09-08T13:28:42;99840.19;;;31.60;30.92
39267;BME280;24967;51.154;13.812;2023-09-08T13:31:09;99844.59;;;31.56;31.06
39267;BME280;24967;51.154;13.812;2023-09-08T13:33:35;99842.38;;;31.63;30.75
39267;BME280;24967;51.154;13.812;2023-09-08T13:36:02;99844.53;;;31.71;30.01
39267;BME280;24967;51.154;13.812;2023-09-08T13:38:28;99850.03;;;31.66;30.37
39267;BME280;24967;51.154;13.812;2023-09-08T13:40:55;99842.44;;;31.43;30.18
39267;BME280;24967;51.154;13.812;2023-09-08T13:43:21;99838.09;;;31.37;30.27
39267;BME280;24967;51.154;13.812;2023-09-08T13:45:49;99841.31;;;31.54;30.45
39267;BME280;24967;51.154;13.812;2023-09-08T13:48:16;99836.88;;;31.63;30.50
39267;BME280;24967;51.154;13.812;2023-09-08T13:50:42;99836.88;;;31.58;32.71
39267;BME280;24967;51.154;13.812;2023-09-08T13:53:08;99839.06;;;31.61;32.36
39267;BME280;24967;51.154;13.812;2023-09-08T13:55:35;99838.19;;;31.71;32.16
39267;BME280;24967;51.154;13.812;2023-09-08T13:58:01;99832.91;;;31.85;31.37
39267;BME280;24967;51.154;13.812;2023-09-08T14:00:28;99832.09;;;31.79;31.49
39267;BME280;24967;51.154;13.812;2023-09-08T14:02:56;99822.78;;;31.80;30.90
39267;BME280;24967;51.154;13.812;2023-09-08T14:05:22;99820.38;;;31.68;32.01
39267;BME280;24967;51.154;13.812;2023-09-08T14:07:49;99823.41;;;31.62;32.42
39267;BME280;24967;51.154;13.812;2023-09-08T14:10:15;99822.00;;;31.69;32.46
39267;BME280;24967;51.154;13.812;2023-09-08T14:12:42;99814.81;;;31.74;30.98
39267;BME280;24967;51.154;13.812;2023-09-08T14:15:09;99809.88;;;31.70;30.55
39267;BME280;24967;51.154;13.812;2023-09-08T14:17:40;99816.66;;;31.44;31.16
39267;BME280;24967;51.154;13.812;2023-09-08T14:20:09;99814.41;;;31.51;30.92
39267;BME280;24967;51.154;13.812;2023-09-08T14:22:36;99818.78;;;31.52;30.83
39267;BME280;24967;51.154;13.812;2023-09-08T14:25:04;99811.16;;;31.44;32.27
39267;BME280;24967;51.154;13.812;2023-09-08T14:27:30;99817.50;;;31.34;31.66
39267;BME280;24967;51.154;13.812;2023-09-08T14:29:58;99810.97;;;31.15;32.94
39267;BME280;24967;51.154;13.812;2023-09-08T14:32:25;99809.25;;;31.29;33.05
39267;BME280;24967;51.154;13.812;2023-09-08T14:34:51;99811.44;;;31.37;33.18
39267;BME280;24967;51.154;13.812;2023-09-08T14:37:19;99811.44;;;31.37;32.25
39267;BME280;24967;51.154;13.812;2023-09-08T14:39:46;99807.84;;;31.32;32.21
39267;BME280;24967;51.154;13.812;2023-09-08T14:42:12;99812.28;;;31.27;31.87
39267;BME280;24967;51.154;13.812;2023-09-08T14:44:40;99815.34;;;31.16;31.89
39267;BME280;24967;51.154;13.812;2023-09-08T14:47:07;99804.91;;;31.13;32.60
39267;BME280;24967;51.154;13.812;2023-09-08T14:49:34;99806.78;;;31.33;32.26
39267;BME280;24967;51.154;13.812;2023-09-08T14:52:00;99807.34;;;31.24;31.91
39267;BME280;24967;51.154;13.812;2023-09-08T14:54:28;99799.44;;;31.13;32.00
39267;BME280;24967;51.154;13.812;2023-09-08T14:56:54;99803.53;;;31.10;31.97
39267;BME280;24967;51.154;13.812;2023-09-08T14:59:21;99810.16;;;31.04;31.78
39267;BME280;24967;51.154;13.812;2023-09-08T15:01:47;99806.34;;;30.95;32.20
39267;BME280;24967;51.154;13.812;2023-09-08T15:04:16;99806.94;;;30.87;32.43
39267;BME280;24967;51.154;13.812;2023-09-08T15:06:43;99803.63;;;30.85;31.62
39267;BME280;24967;51.154;13.812;2023-09-08T15:09:09;99802.28;;;30.82;32.68
39267;BME280;24967;51.154;13.812;2023-09-08T15:11:37;99799.81;;;30.80;32.32
39267;BME280;24967;51.154;13.812;2023-09-08T15:14:04;99798.16;;;30.74;32.16
39267;BME280;24967;51.154;13.812;2023-09-08T15:16:31;99802.00;;;30.78;31.96
39267;BME280;24967;51.154;13.812;2023-09-08T15:18:57;99802.56;;;30.80;31.76
39267;BME280;24967;51.154;13.812;2023-09-08T15:21:24;99800.06;;;30.64;32.84
39267;BME280;24967;51.154;13.812;2023-09-08T15:23:52;99802.56;;;30.55;32.02
39267;BME280;24967;51.154;13.812;2023-09-08T15:26:19;99791.03;;;30.53;32.34
39267;BME280;24967;51.154;13.812;2023-09-08T15:28:47;99795.16;;;30.45;33.49
39267;BME280;24967;51.154;13.812;2023-09-08T15:31:15;99797.94;;;30.35;33.38
39267;BME280;24967;51.154;13.812;2023-09-08T15:33:42;99790.25;;;30.32;33.69
39267;BME280;24967;51.154;13.812;2023-09-08T15:36:09;99788.00;;;30.19;33.59
39267;BME280;24967;51.154;13.812;2023-09-08T15:38:35;99793.22;;;30.15;34.64
39267;BME280;24967;51.154;13.812;2023-09-08T15:41:16;99782.56;;;30.24;33.89
39267;BME280;24967;51.154;13.812;2023-09-08T15:43:47;99784.72;;;30.06;34.17
39267;BME280;24967;51.154;13.812;2023-09-08T15:46:14;99781.97;;;30.01;34.05
39267;BME280;24967;51.154;13.812;2023-09-08T15:48:41;99776.25;;;30.08;34.52
39267;BME280;24967;51.154;13.812;2023-09-08T15:51:08;99776.50;;;30.06;33.56
39267;BME280;24967;51.154;13.812;2023-09-08T15:53:35;99766.91;;;29.94;33.93
39267;BME280;24967;51.154;13.812;2023-09-08T15:56:02;99769.63;;;29.88;34.22
39267;BME280;24967;51.154;13.812;2023-09-08T15:58:28;99769.91;;;29.87;34.50
39267;BME280;24967;51.154;13.812;2023-09-08T16:00:56;99768.81;;;29.88;34.00
39267;BME280;24967;51.154;13.812;2023-09-08T16:03:23;99766.59;;;29.70;34.90
39267;BME280;24967;51.154;13.812;2023-09-08T16:05:50;99774.00;;;29.69;35.03